sensor_id;sensor_type;location;lat;lon;timestamp;P1;durP1;ratioP1;P2;durP2;ratioP2
59145;SDS011;44928;53.074;6.646;2023-09-07T00:01:29;7.07;;;2.40;;
59145;SDS011;44928;53.074;6.646;2023-09-07T00:03:56;6.80;;;2.30;;
59145;SDS011;44928;53.074;6.646;2023-09-07T00:06:22;5.93;;;2.33;;
59145;SDS011;44928;53.074;6.646;2023-09-07T00:08:48;6.15;;;2.35;;
59145;SDS011;44928;53.074;6.646;2023-09-07T00:11:14;5.40;;;2.47;;
59145;SDS011;44928;53.074;6.646;2023-09-07T00:13:39;6.07;;;2.50;;
59145;SDS011;44928;53.074;6.646;2023-09-07T00:16:05;6.72;;;2.60;;
59145;SDS011;44928;53.074;6.646;2023-09-07T00:18:32;7.85;;;2.30;;
59145;SDS011;44928;53.074;6.646;2023-09-07T00:20:58;7.60;;;2.50;;
59145;SDS011;44928;53.074;6.646;2023-09-07T00:23:25;7.18;;;2.65;;
59145;SDS011;44928;53.074;6.646;2023-09-07T00:25:51;7.57;;;2.55;;
59145;SDS011;44928;53.074;6.646;2023-09-07T00:28:17;7.43;;;2.47;;
59145;SDS011;44928;53.074;6.646;2023-09-07T00:30:43;5.78;;;2.45;;
59145;SDS011;44928;53.074;6.646;2023-09-07T00:33:09;7.07;;;2.65;;
59145;SDS011;44928;53.074;6.646;2023-09-07T00:35:36;6.90;;;2.50;;
59145;SDS011;44928;53.074;6.646;2023-09-07T00:38:02;7.78;;;2.40;;
59145;SDS011;44928;53.074;6.646;2023-09-07T00:40:28;7.35;;;2.70;;
59145;SDS011;44928;53.074;6.646;2023-09-07T00:42:55;7.28;;;2.50;;
59145;SDS011;44928;53.074;6.646;2023-09-07T00:45:20;8.32;;;2.47;;
59145;SDS011;44928;53.074;6.646;2023-09-07T00:47:47;6.38;;;2.45;;
59145;SDS011;44928;53.074;6.646;2023-09-07T00:50:13;8.77;;;3.17;;
59145;SDS011;44928;53.074;6.646;2023-09-07T00:52:40;6.72;;;2.50;;
59145;SDS011;44928;53.074;6.646;2023-09-07T00:55:08;8.57;;;2.45;;
59145;SDS011;44928;53.074;6.646;2023-09-07T00:57:35;7.30;;;2.42;;
59145;SDS011;44928;53.074;6.646;2023-09-07T01:00:02;7.30;;;2.45;;
59145;SDS011;44928;53.074;6.646;2023-09-07T01:02:33;6.72;;;2.47;;
59145;SDS011;44928;53.074;6.646;2023-09-07T01:04:59;5.47;;;2.60;;
59145;SDS011;44928;53.074;6.646;2023-09-07T01:10:24;6.40;;;2.50;;
59145;SDS011;44928;53.074;6.646;2023-09-07T01:12:50;6.38;;;2.55;;
59145;SDS011;44928;53.074;6.646;2023-09-07T01:15:16;7.25;;;2.65;;
59145;SDS011;44928;53.074;6.646;2023-09-07T01:17:42;7.32;;;2.88;;
59145;SDS011;44928;53.074;6.646;2023-09-07T01:20:08;6.72;;;2.40;;
59145;SDS011;44928;53.074;6.646;2023-09-07T01:22:37;7.53;;;2.92;;
59145;SDS011;44928;53.074;6.646;2023-09-07T01:25:04;7.50;;;3.00;;
59145;SDS011;44928;53.074;6.646;2023-09-07T01:27:32;7.72;;;2.90;;
59145;SDS011;44928;53.074;6.646;2023-09-07T01:29:58;7.40;;;3.45;;
59145;SDS011;44928;53.074;6.646;2023-09-07T01:32:24;6.80;;;2.65;;
59145;SDS011;44928;53.074;6.646;2023-09-07T01:34:53;6.47;;;2.50;;
59145;SDS011;44928;53.074;6.646;2023-09-07T01:37:22;8.20;;;2.67;;
59145;SDS011;44928;53.074;6.646;2023-09-07T01:39:47;7.65;;;2.55;;
59145;SDS011;44928;53.074;6.646;2023-09-07T01:42:14;9.02;;;2.95;;
59145;SDS011;44928;53.074;6.646;2023-09-07T01:44:40;6.85;;;2.58;;
59145;SDS011;44928;53.074;6.646;2023-09-07T01:47:06;7.05;;;2.90;;
59145;SDS011;44928;53.074;6.646;2023-09-07T01:49:31;7.60;;;2.50;;
59145;SDS011;44928;53.074;6.646;2023-09-07T01:51:57;8.23;;;2.67;;
59145;SDS011;44928;53.074;6.646;2023-09-07T01:54:23;6.50;;;2.65;;
59145;SDS011;44928;53.074;6.646;2023-09-07T01:56:49;8.02;;;2.92;;
59145;SDS011;44928;53.074;6.646;2023-09-07T01:59:16;7.03;;;2.80;;
59145;SDS011;44928;53.074;6.646;2023-09-07T02:01:42;6.15;;;2.65;;
59145;SDS011;44928;53.074;6.646;2023-09-07T02:04:07;7.75;;;2.95;;
59145;SDS011;44928;53.074;6.646;2023-09-07T02:06:33;7.47;;;2.63;;
59145;SDS011;44928;53.074;6.646;2023-09-07T02:08:59;8.43;;;2.70;;
59145;SDS011;44928;53.074;6.646;2023-09-07T02:11:25;6.97;;;2.75;;
59145;SDS011;44928;53.074;6.646;2023-09-07T02:13:51;8.38;;;3.22;;
59145;SDS011;44928;53.074;6.646;2023-09-07T02:16:17;8.57;;;3.17;;
59145;SDS011;44928;53.074;6.646;2023-09-07T02:18:44;6.95;;;3.42;;
59145;SDS011;44928;53.074;6.646;2023-09-07T02:21:10;7.45;;;3.10;;
59145;SDS011;44928;53.074;6.646;2023-09-07T02:23:37;8.27;;;3.45;;
59145;SDS011;44928;53.074;6.646;2023-09-07T02:26:03;8.27;;;3.38;;
59145;SDS011;44928;53.074;6.646;2023-09-07T02:28:29;9.00;;;3.22;;
59145;SDS011;44928;53.074;6.646;2023-09-07T02:31:01;6.47;;;3.22;;
59145;SDS011;44928;53.074;6.646;2023-09-07T02:33:30;8.65;;;3.03;;
59145;SDS011;44928;53.074;6.646;2023-09-07T02:35:56;8.95;;;3.35;;
59145;SDS011;44928;53.074;6.646;2023-09-07T02:38:22;6.82;;;3.00;;
59145;SDS011;44928;53.074;6.646;2023-09-07T02:40:48;7.78;;;3.10;;
59145;SDS011;44928;53.074;6.646;2023-09-07T02:43:14;7.07;;;2.97;;
59145;SDS011;44928;53.074;6.646;2023-09-07T02:45:41;8.23;;;3.35;;
59145;SDS011;44928;53.074;6.646;2023-09-07T02:48:07;7.57;;;3.30;;
59145;SDS011;44928;53.074;6.646;2023-09-07T02:50:34;8.07;;;3.40;;
59145;SDS011;44928;53.074;6.646;2023-09-07T02:53:00;7.72;;;3.45;;
59145;SDS011;44928;53.074;6.646;2023-09-07T02:55:28;9.75;;;3.53;;
59145;SDS011;44928;53.074;6.646;2023-09-07T02:57:55;9.63;;;3.75;;
59145;SDS011;44928;53.074;6.646;2023-09-07T03:00:22;7.03;;;3.38;;
59145;SDS011;44928;53.074;6.646;2023-09-07T03:02:48;7.20;;;3.28;;
59145;SDS011;44928;53.074;6.646;2023-09-07T03:05:15;7.07;;;3.28;;
59145;SDS011;44928;53.074;6.646;2023-09-07T03:07:41;7.90;;;3.10;;
59145;SDS011;44928;53.074;6.646;2023-09-07T03:10:07;6.95;;;3.30;;
59145;SDS011;44928;53.074;6.646;2023-09-07T03:12:33;7.63;;;2.80;;
59145;SDS011;44928;53.074;6.646;2023-09-07T03:14:59;8.93;;;2.63;;
59145;SDS011;44928;53.074;6.646;2023-09-07T03:17:28;6.50;;;2.42;;
59145;SDS011;44928;53.074;6.646;2023-09-07T03:19:55;6.22;;;2.45;;
59145;SDS011;44928;53.074;6.646;2023-09-07T03:22:20;6.40;;;2.45;;
59145;SDS011;44928;53.074;6.646;2023-09-07T03:24:51;8.75;;;2.70;;
59145;SDS011;44928;53.074;6.646;2023-09-07T03:27:17;8.05;;;2.80;;
59145;SDS011;44928;53.074;6.646;2023-09-07T03:29:46;5.93;;;2.55;;
59145;SDS011;44928;53.074;6.646;2023-09-07T03:32:16;8.65;;;2.83;;
59145;SDS011;44928;53.074;6.646;2023-09-07T03:34:42;6.32;;;2.33;;
59145;SDS011;44928;53.074;6.646;2023-09-07T03:37:08;8.10;;;2.88;;
59145;SDS011;44928;53.074;6.646;2023-09-07T03:39:36;6.78;;;2.60;;
59145;SDS011;44928;53.074;6.646;2023-09-07T03:42:02;8.93;;;2.90;;
59145;SDS011;44928;53.074;6.646;2023-09-07T03:44:28;6.63;;;2.70;;
59145;SDS011;44928;53.074;6.646;2023-09-07T03:46:54;9.43;;;3.00;;
59145;SDS011;44928;53.074;6.646;2023-09-07T03:49:20;8.98;;;3.35;;
59145;SDS011;44928;53.074;6.646;2023-09-07T03:51:46;7.15;;;2.90;;
59145;SDS011;44928;53.074;6.646;2023-09-07T03:54:11;8.48;;;3.05;;
59145;SDS011;44928;53.074;6.646;2023-09-07T03:56:37;6.78;;;3.05;;
59145;SDS011;44928;53.074;6.646;2023-09-07T03:59:04;8.50;;;3.75;;
59145;SDS011;44928;53.074;6.646;2023-09-07T04:01:30;8.45;;;3.67;;
59145;SDS011;44928;53.074;6.646;2023-09-07T04:03:56;7.10;;;3.67;;
59145;SDS011;44928;53.074;6.646;2023-09-07T04:06:21;8.40;;;4.20;;
59145;SDS011;44928;53.074;6.646;2023-09-07T04:08:49;11.40;;;5.05;;
59145;SDS011;44928;53.074;6.646;2023-09-07T04:11:14;11.13;;;4.90;;
59145;SDS011;44928;53.074;6.646;2023-09-07T04:13:40;10.20;;;4.35;;
59145;SDS011;44928;53.074;6.646;2023-09-07T04:16:08;9.18;;;4.07;;
59145;SDS011;44928;53.074;6.646;2023-09-07T04:18:34;7.85;;;4.43;;
59145;SDS011;44928;53.074;6.646;2023-09-07T04:21:06;10.15;;;5.13;;
59145;SDS011;44928;53.074;6.646;2023-09-07T04:23:33;10.45;;;4.93;;
59145;SDS011;44928;53.074;6.646;2023-09-07T04:26:08;9.48;;;5.00;;
59145;SDS011;44928;53.074;6.646;2023-09-07T04:28:35;10.52;;;4.68;;
59145;SDS011;44928;53.074;6.646;2023-09-07T04:31:02;8.35;;;4.75;;
59145;SDS011;44928;53.074;6.646;2023-09-07T04:33:34;10.63;;;4.53;;
59145;SDS011;44928;53.074;6.646;2023-09-07T04:36:13;10.32;;;4.63;;
59145;SDS011;44928;53.074;6.646;2023-09-07T04:38:40;8.55;;;4.57;;
59145;SDS011;44928;53.074;6.646;2023-09-07T04:41:12;7.78;;;4.10;;
59145;SDS011;44928;53.074;6.646;2023-09-07T04:43:40;12.70;;;4.70;;
59145;SDS011;44928;53.074;6.646;2023-09-07T04:46:10;8.77;;;4.18;;
59145;SDS011;44928;53.074;6.646;2023-09-07T04:48:36;8.70;;;4.45;;
59145;SDS011;44928;53.074;6.646;2023-09-07T04:51:03;8.13;;;3.92;;
59145;SDS011;44928;53.074;6.646;2023-09-07T04:53:38;10.57;;;5.60;;
59145;SDS011;44928;53.074;6.646;2023-09-07T04:56:05;14.55;;;5.72;;
59145;SDS011;44928;53.074;6.646;2023-09-07T04:58:33;9.93;;;5.15;;
59145;SDS011;44928;53.074;6.646;2023-09-07T05:01:03;8.65;;;4.20;;
59145;SDS011;44928;53.074;6.646;2023-09-07T05:03:29;8.07;;;4.20;;
59145;SDS011;44928;53.074;6.646;2023-09-07T05:05:55;7.95;;;4.00;;
59145;SDS011;44928;53.074;6.646;2023-09-07T05:08:21;9.77;;;4.13;;
59145;SDS011;44928;53.074;6.646;2023-09-07T05:10:54;8.55;;;4.50;;
59145;SDS011;44928;53.074;6.646;2023-09-07T05:13:20;8.38;;;4.40;;
59145;SDS011;44928;53.074;6.646;2023-09-07T05:15:49;9.80;;;3.88;;
59145;SDS011;44928;53.074;6.646;2023-09-07T05:18:16;8.83;;;4.03;;
59145;SDS011;44928;53.074;6.646;2023-09-07T05:20:43;8.05;;;3.80;;
59145;SDS011;44928;53.074;6.646;2023-09-07T05:23:14;8.25;;;4.25;;
59145;SDS011;44928;53.074;6.646;2023-09-07T05:25:53;9.55;;;4.63;;
59145;SDS011;44928;53.074;6.646;2023-09-07T05:28:20;8.60;;;4.57;;
59145;SDS011;44928;53.074;6.646;2023-09-07T05:30:47;11.98;;;5.95;;
59145;SDS011;44928;53.074;6.646;2023-09-07T05:33:14;12.75;;;7.55;;
59145;SDS011;44928;53.074;6.646;2023-09-07T05:35:42;10.85;;;5.53;;
59145;SDS011;44928;53.074;6.646;2023-09-07T05:38:08;10.68;;;5.60;;
59145;SDS011;44928;53.074;6.646;2023-09-07T05:40:38;9.10;;;4.97;;
59145;SDS011;44928;53.074;6.646;2023-09-07T05:43:05;8.77;;;4.63;;
59145;SDS011;44928;53.074;6.646;2023-09-07T05:45:35;9.40;;;4.28;;
59145;SDS011;44928;53.074;6.646;2023-09-07T05:48:04;10.68;;;4.63;;
59145;SDS011;44928;53.074;6.646;2023-09-07T05:50:31;11.45;;;4.90;;
59145;SDS011;44928;53.074;6.646;2023-09-07T05:52:59;9.90;;;4.80;;
59145;SDS011;44928;53.074;6.646;2023-09-07T05:55:25;8.48;;;4.60;;
59145;SDS011;44928;53.074;6.646;2023-09-07T05:57:50;8.15;;;4.43;;
59145;SDS011;44928;53.074;6.646;2023-09-07T06:00:19;12.18;;;4.47;;
59145;SDS011;44928;53.074;6.646;2023-09-07T06:02:45;8.38;;;4.70;;
59145;SDS011;44928;53.074;6.646;2023-09-07T06:05:12;9.25;;;4.82;;
59145;SDS011;44928;53.074;6.646;2023-09-07T06:07:38;10.35;;;5.43;;
59145;SDS011;44928;53.074;6.646;2023-09-07T06:10:04;9.02;;;5.00;;
59145;SDS011;44928;53.074;6.646;2023-09-07T06:12:33;10.60;;;5.25;;
59145;SDS011;44928;53.074;6.646;2023-09-07T06:14:59;12.88;;;5.78;;
59145;SDS011;44928;53.074;6.646;2023-09-07T06:17:26;9.90;;;5.30;;
59145;SDS011;44928;53.074;6.646;2023-09-07T06:19:53;9.77;;;5.80;;
59145;SDS011;44928;53.074;6.646;2023-09-07T06:22:19;9.27;;;5.10;;
59145;SDS011;44928;53.074;6.646;2023-09-07T06:24:45;10.27;;;5.85;;
59145;SDS011;44928;53.074;6.646;2023-09-07T06:27:11;9.93;;;6.50;;
59145;SDS011;44928;53.074;6.646;2023-09-07T06:29:37;9.50;;;6.40;;
59145;SDS011;44928;53.074;6.646;2023-09-07T06:32:03;10.90;;;6.05;;
59145;SDS011;44928;53.074;6.646;2023-09-07T06:34:29;9.60;;;6.10;;
59145;SDS011;44928;53.074;6.646;2023-09-07T06:36:54;9.45;;;5.90;;
59145;SDS011;44928;53.074;6.646;2023-09-07T06:39:20;10.57;;;6.60;;
59145;SDS011;44928;53.074;6.646;2023-09-07T06:41:46;11.55;;;6.55;;
59145;SDS011;44928;53.074;6.646;2023-09-07T06:44:13;10.98;;;6.13;;
59145;SDS011;44928;53.074;6.646;2023-09-07T06:46:39;10.32;;;6.28;;
59145;SDS011;44928;53.074;6.646;2023-09-07T06:49:05;11.02;;;6.55;;
59145;SDS011;44928;53.074;6.646;2023-09-07T06:51:32;10.38;;;7.15;;
59145;SDS011;44928;53.074;6.646;2023-09-07T06:53:57;14.02;;;6.85;;
59145;SDS011;44928;53.074;6.646;2023-09-07T06:56:23;10.57;;;6.35;;
59145;SDS011;44928;53.074;6.646;2023-09-07T06:58:49;9.43;;;6.30;;
59145;SDS011;44928;53.074;6.646;2023-09-07T07:01:16;13.35;;;7.03;;
59145;SDS011;44928;53.074;6.646;2023-09-07T07:03:41;9.80;;;6.22;;
59145;SDS011;44928;53.074;6.646;2023-09-07T07:06:07;10.93;;;7.25;;
59145;SDS011;44928;53.074;6.646;2023-09-07T07:08:34;10.93;;;6.30;;
59145;SDS011;44928;53.074;6.646;2023-09-07T07:10:59;12.32;;;7.28;;
59145;SDS011;44928;53.074;6.646;2023-09-07T07:13:25;11.60;;;7.20;;
59145;SDS011;44928;53.074;6.646;2023-09-07T07:15:51;11.10;;;7.22;;
59145;SDS011;44928;53.074;6.646;2023-09-07T07:18:17;10.00;;;6.97;;
59145;SDS011;44928;53.074;6.646;2023-09-07T07:20:43;10.80;;;7.05;;
59145;SDS011;44928;53.074;6.646;2023-09-07T07:23:10;11.75;;;7.05;;
59145;SDS011;44928;53.074;6.646;2023-09-07T07:25:36;12.07;;;6.85;;
59145;SDS011;44928;53.074;6.646;2023-09-07T07:28:05;11.15;;;7.53;;
59145;SDS011;44928;53.074;6.646;2023-09-07T07:30:35;11.48;;;6.97;;
59145;SDS011;44928;53.074;6.646;2023-09-07T07:33:02;10.45;;;7.07;;
59145;SDS011;44928;53.074;6.646;2023-09-07T07:35:29;10.90;;;7.28;;
59145;SDS011;44928;53.074;6.646;2023-09-07T07:37:55;10.65;;;7.15;;
59145;SDS011;44928;53.074;6.646;2023-09-07T07:40:21;10.90;;;6.75;;
59145;SDS011;44928;53.074;6.646;2023-09-07T07:42:47;11.27;;;7.10;;
59145;SDS011;44928;53.074;6.646;2023-09-07T07:45:13;10.73;;;6.53;;
59145;SDS011;44928;53.074;6.646;2023-09-07T07:47:40;11.63;;;6.80;;
59145;SDS011;44928;53.074;6.646;2023-09-07T07:50:07;10.68;;;7.20;;
59145;SDS011;44928;53.074;6.646;2023-09-07T07:52:33;12.13;;;6.60;;
59145;SDS011;44928;53.074;6.646;2023-09-07T07:55:00;10.82;;;7.63;;
59145;SDS011;44928;53.074;6.646;2023-09-07T07:57:25;10.05;;;6.47;;
59145;SDS011;44928;53.074;6.646;2023-09-07T07:59:51;11.00;;;7.05;;
59145;SDS011;44928;53.074;6.646;2023-09-07T08:02:17;10.75;;;6.22;;
59145;SDS011;44928;53.074;6.646;2023-09-07T08:04:43;10.45;;;6.47;;
59145;SDS011;44928;53.074;6.646;2023-09-07T08:07:09;11.05;;;6.65;;
59145;SDS011;44928;53.074;6.646;2023-09-07T08:09:34;11.52;;;7.03;;
59145;SDS011;44928;53.074;6.646;2023-09-07T08:12:00;12.75;;;6.90;;
59145;SDS011;44928;53.074;6.646;2023-09-07T08:14:28;11.05;;;6.07;;
59145;SDS011;44928;53.074;6.646;2023-09-07T08:16:54;10.07;;;6.60;;
59145;SDS011;44928;53.074;6.646;2023-09-07T08:19:22;12.13;;;6.10;;
59145;SDS011;44928;53.074;6.646;2023-09-07T08:21:48;9.18;;;5.47;;
59145;SDS011;44928;53.074;6.646;2023-09-07T08:24:14;10.55;;;5.50;;
59145;SDS011;44928;53.074;6.646;2023-09-07T08:26:40;10.77;;;5.82;;
59145;SDS011;44928;53.074;6.646;2023-09-07T08:29:06;10.43;;;4.97;;
59145;SDS011;44928;53.074;6.646;2023-09-07T08:31:33;9.68;;;5.80;;
59145;SDS011;44928;53.074;6.646;2023-09-07T08:34:01;11.05;;;5.47;;
59145;SDS011;44928;53.074;6.646;2023-09-07T08:36:30;9.63;;;5.45;;
59145;SDS011;44928;53.074;6.646;2023-09-07T08:39:00;12.40;;;5.10;;
59145;SDS011;44928;53.074;6.646;2023-09-07T08:41:30;9.07;;;4.57;;
59145;SDS011;44928;53.074;6.646;2023-09-07T08:44:02;8.93;;;5.20;;
59145;SDS011;44928;53.074;6.646;2023-09-07T08:46:31;11.40;;;5.22;;
59145;SDS011;44928;53.074;6.646;2023-09-07T08:48:59;9.57;;;5.35;;
59145;SDS011;44928;53.074;6.646;2023-09-07T08:51:26;8.30;;;4.35;;
59145;SDS011;44928;53.074;6.646;2023-09-07T08:53:56;9.32;;;4.38;;
59145;SDS011;44928;53.074;6.646;2023-09-07T08:56:23;12.18;;;5.05;;
59145;SDS011;44928;53.074;6.646;2023-09-07T08:58:49;12.77;;;4.28;;
59145;SDS011;44928;53.074;6.646;2023-09-07T09:01:15;9.30;;;4.50;;
59145;SDS011;44928;53.074;6.646;2023-09-07T09:03:42;9.68;;;4.35;;
59145;SDS011;44928;53.074;6.646;2023-09-07T09:06:08;10.02;;;4.80;;
59145;SDS011;44928;53.074;6.646;2023-09-07T09:09:08;10.43;;;4.57;;
59145;SDS011;44928;53.074;6.646;2023-09-07T09:11:30;8.32;;;4.63;;
59145;SDS011;44928;53.074;6.646;2023-09-07T09:13:56;9.10;;;4.70;;
59145;SDS011;44928;53.074;6.646;2023-09-07T09:16:21;9.40;;;4.18;;
59145;SDS011;44928;53.074;6.646;2023-09-07T09:18:51;9.15;;;4.25;;
59145;SDS011;44928;53.074;6.646;2023-09-07T09:21:18;10.55;;;4.25;;
59145;SDS011;44928;53.074;6.646;2023-09-07T09:23:49;9.90;;;4.30;;
59145;SDS011;44928;53.074;6.646;2023-09-07T09:26:17;9.40;;;4.60;;
59145;SDS011;44928;53.074;6.646;2023-09-07T09:28:43;8.15;;;4.63;;
59145;SDS011;44928;53.074;6.646;2023-09-07T09:31:10;9.63;;;4.50;;
59145;SDS011;44928;53.074;6.646;2023-09-07T09:33:42;8.68;;;4.60;;
59145;SDS011;44928;53.074;6.646;2023-09-07T09:36:12;10.10;;;4.28;;
59145;SDS011;44928;53.074;6.646;2023-09-07T09:38:39;9.07;;;4.57;;
59145;SDS011;44928;53.074;6.646;2023-09-07T09:41:05;9.13;;;4.35;;
59145;SDS011;44928;53.074;6.646;2023-09-07T09:43:33;8.40;;;4.40;;
59145;SDS011;44928;53.074;6.646;2023-09-07T09:45:59;9.90;;;4.35;;
59145;SDS011;44928;53.074;6.646;2023-09-07T09:48:27;8.02;;;4.28;;
59145;SDS011;44928;53.074;6.646;2023-09-07T09:50:53;8.20;;;3.80;;
59145;SDS011;44928;53.074;6.646;2023-09-07T09:53:19;9.23;;;4.55;;
59145;SDS011;44928;53.074;6.646;2023-09-07T09:55:46;8.63;;;3.95;;
59145;SDS011;44928;53.074;6.646;2023-09-07T09:58:13;8.40;;;3.90;;
59145;SDS011;44928;53.074;6.646;2023-09-07T10:00:43;11.13;;;4.75;;
59145;SDS011;44928;53.074;6.646;2023-09-07T10:05:49;7.75;;;3.83;;
59145;SDS011;44928;53.074;6.646;2023-09-07T10:08:16;8.18;;;4.00;;
59145;SDS011;44928;53.074;6.646;2023-09-07T10:10:43;9.25;;;4.53;;
59145;SDS011;44928;53.074;6.646;2023-09-07T10:13:13;9.43;;;4.28;;
59145;SDS011;44928;53.074;6.646;2023-09-07T10:15:39;9.30;;;4.25;;
59145;SDS011;44928;53.074;6.646;2023-09-07T10:18:06;8.57;;;3.92;;
59145;SDS011;44928;53.074;6.646;2023-09-07T10:20:46;9.05;;;4.15;;
59145;SDS011;44928;53.074;6.646;2023-09-07T10:23:15;8.10;;;4.32;;
59145;SDS011;44928;53.074;6.646;2023-09-07T10:25:41;10.25;;;4.20;;
59145;SDS011;44928;53.074;6.646;2023-09-07T10:31:02;8.63;;;4.25;;
59145;SDS011;44928;53.074;6.646;2023-09-07T10:33:30;8.38;;;4.32;;
59145;SDS011;44928;53.074;6.646;2023-09-07T10:35:57;12.00;;;4.55;;
59145;SDS011;44928;53.074;6.646;2023-09-07T10:38:24;8.80;;;4.07;;
59145;SDS011;44928;53.074;6.646;2023-09-07T10:40:54;9.40;;;4.15;;
59145;SDS011;44928;53.074;6.646;2023-09-07T10:43:27;8.48;;;4.22;;
59145;SDS011;44928;53.074;6.646;2023-09-07T10:45:58;9.32;;;4.15;;
59145;SDS011;44928;53.074;6.646;2023-09-07T10:48:26;8.50;;;4.00;;
59145;SDS011;44928;53.074;6.646;2023-09-07T10:50:54;10.40;;;3.83;;
59145;SDS011;44928;53.074;6.646;2023-09-07T10:53:28;8.32;;;3.75;;
59145;SDS011;44928;53.074;6.646;2023-09-07T10:55:59;8.73;;;3.75;;
59145;SDS011;44928;53.074;6.646;2023-09-07T10:58:33;8.20;;;3.85;;
59145;SDS011;44928;53.074;6.646;2023-09-07T11:01:00;8.27;;;3.40;;
59145;SDS011;44928;53.074;6.646;2023-09-07T11:03:27;8.23;;;3.67;;
59145;SDS011;44928;53.074;6.646;2023-09-07T11:06:00;8.18;;;3.40;;
59145;SDS011;44928;53.074;6.646;2023-09-07T11:08:29;8.10;;;3.40;;
59145;SDS011;44928;53.074;6.646;2023-09-07T11:10:55;8.50;;;3.25;;
59145;SDS011;44928;53.074;6.646;2023-09-07T11:13:22;9.07;;;3.38;;
59145;SDS011;44928;53.074;6.646;2023-09-07T11:15:49;7.60;;;3.08;;
59145;SDS011;44928;53.074;6.646;2023-09-07T11:18:21;9.18;;;3.58;;
59145;SDS011;44928;53.074;6.646;2023-09-07T11:20:48;7.53;;;3.10;;
59145;SDS011;44928;53.074;6.646;2023-09-07T11:23:16;7.72;;;3.13;;
59145;SDS011;44928;53.074;6.646;2023-09-07T11:25:43;7.18;;;3.30;;
59145;SDS011;44928;53.074;6.646;2023-09-07T11:28:12;7.68;;;3.47;;
59145;SDS011;44928;53.074;6.646;2023-09-07T11:30:48;6.82;;;3.10;;
59145;SDS011;44928;53.074;6.646;2023-09-07T11:35:45;9.38;;;2.90;;
59145;SDS011;44928;53.074;6.646;2023-09-07T11:38:16;7.03;;;2.93;;
59145;SDS011;44928;53.074;6.646;2023-09-07T11:40:44;7.78;;;3.13;;
59145;SDS011;44928;53.074;6.646;2023-09-07T11:43:14;9.02;;;3.20;;
59145;SDS011;44928;53.074;6.646;2023-09-07T11:45:42;7.03;;;3.25;;
59145;SDS011;44928;53.074;6.646;2023-09-07T11:48:09;8.50;;;3.20;;
59145;SDS011;44928;53.074;6.646;2023-09-07T11:50:36;7.70;;;3.30;;
59145;SDS011;44928;53.074;6.646;2023-09-07T11:53:03;10.60;;;3.20;;
59145;SDS011;44928;53.074;6.646;2023-09-07T11:55:30;11.07;;;3.15;;
59145;SDS011;44928;53.074;6.646;2023-09-07T11:58:00;9.57;;;3.60;;
59145;SDS011;44928;53.074;6.646;2023-09-07T12:00:36;8.70;;;3.17;;
59145;SDS011;44928;53.074;6.646;2023-09-07T12:03:06;7.70;;;3.00;;
59145;SDS011;44928;53.074;6.646;2023-09-07T12:05:32;8.23;;;3.25;;
59145;SDS011;44928;53.074;6.646;2023-09-07T12:07:58;9.23;;;3.35;;
59145;SDS011;44928;53.074;6.646;2023-09-07T12:10:24;7.70;;;2.92;;
59145;SDS011;44928;53.074;6.646;2023-09-07T12:12:51;8.30;;;2.90;;
59145;SDS011;44928;53.074;6.646;2023-09-07T12:15:17;6.65;;;3.20;;
59145;SDS011;44928;53.074;6.646;2023-09-07T12:17:43;8.05;;;2.97;;
59145;SDS011;44928;53.074;6.646;2023-09-07T12:20:09;7.63;;;3.20;;
59145;SDS011;44928;53.074;6.646;2023-09-07T12:22:36;7.93;;;3.10;;
59145;SDS011;44928;53.074;6.646;2023-09-07T12:25:03;8.75;;;3.50;;
59145;SDS011;44928;53.074;6.646;2023-09-07T12:27:33;8.65;;;3.30;;
59145;SDS011;44928;53.074;6.646;2023-09-07T12:30:00;8.25;;;3.22;;
59145;SDS011;44928;53.074;6.646;2023-09-07T12:32:31;7.40;;;3.47;;
59145;SDS011;44928;53.074;6.646;2023-09-07T12:34:58;7.97;;;3.30;;
59145;SDS011;44928;53.074;6.646;2023-09-07T12:37:26;7.28;;;3.45;;
59145;SDS011;44928;53.074;6.646;2023-09-07T12:39:52;8.20;;;3.33;;
59145;SDS011;44928;53.074;6.646;2023-09-07T12:42:18;8.05;;;3.38;;
59145;SDS011;44928;53.074;6.646;2023-09-07T12:44:44;8.95;;;3.60;;
59145;SDS011;44928;53.074;6.646;2023-09-07T12:47:10;9.27;;;3.45;;
59145;SDS011;44928;53.074;6.646;2023-09-07T12:49:43;6.82;;;3.33;;
59145;SDS011;44928;53.074;6.646;2023-09-07T12:52:10;8.77;;;3.38;;
59145;SDS011;44928;53.074;6.646;2023-09-07T12:54:36;8.07;;;3.63;;
59145;SDS011;44928;53.074;6.646;2023-09-07T12:57:02;10.27;;;3.70;;
59145;SDS011;44928;53.074;6.646;2023-09-07T12:59:29;8.00;;;3.38;;
59145;SDS011;44928;53.074;6.646;2023-09-07T13:01:55;9.80;;;3.88;;
59145;SDS011;44928;53.074;6.646;2023-09-07T13:04:21;7.63;;;2.90;;
59145;SDS011;44928;53.074;6.646;2023-09-07T13:06:47;8.32;;;3.50;;
59145;SDS011;44928;53.074;6.646;2023-09-07T13:09:13;8.48;;;3.25;;
59145;SDS011;44928;53.074;6.646;2023-09-07T13:11:39;7.47;;;3.58;;
59145;SDS011;44928;53.074;6.646;2023-09-07T13:14:05;8.27;;;3.30;;
59145;SDS011;44928;53.074;6.646;2023-09-07T13:16:33;8.63;;;3.20;;
59145;SDS011;44928;53.074;6.646;2023-09-07T13:18:59;8.18;;;3.33;;
59145;SDS011;44928;53.074;6.646;2023-09-07T13:21:25;7.38;;;3.13;;
59145;SDS011;44928;53.074;6.646;2023-09-07T13:23:51;6.72;;;3.30;;
59145;SDS011;44928;53.074;6.646;2023-09-07T13:26:17;10.73;;;3.83;;
59145;SDS011;44928;53.074;6.646;2023-09-07T13:28:42;9.45;;;3.40;;
59145;SDS011;44928;53.074;6.646;2023-09-07T13:31:08;7.20;;;2.95;;
59145;SDS011;44928;53.074;6.646;2023-09-07T13:33:34;8.18;;;3.63;;
59145;SDS011;44928;53.074;6.646;2023-09-07T13:36:00;9.77;;;3.42;;
59145;SDS011;44928;53.074;6.646;2023-09-07T13:38:26;9.23;;;3.47;;
59145;SDS011;44928;53.074;6.646;2023-09-07T13:40:53;7.80;;;3.30;;
59145;SDS011;44928;53.074;6.646;2023-09-07T13:43:19;8.38;;;3.17;;
59145;SDS011;44928;53.074;6.646;2023-09-07T13:45:45;9.60;;;3.78;;
59145;SDS011;44928;53.074;6.646;2023-09-07T13:48:10;7.70;;;3.30;;
59145;SDS011;44928;53.074;6.646;2023-09-07T13:50:36;7.90;;;3.35;;
59145;SDS011;44928;53.074;6.646;2023-09-07T13:53:02;7.25;;;3.47;;
59145;SDS011;44928;53.074;6.646;2023-09-07T13:55:28;8.48;;;3.20;;
59145;SDS011;44928;53.074;6.646;2023-09-07T13:57:54;7.45;;;3.20;;
59145;SDS011;44928;53.074;6.646;2023-09-07T14:00:20;8.07;;;3.40;;
59145;SDS011;44928;53.074;6.646;2023-09-07T14:02:46;8.77;;;3.53;;
59145;SDS011;44928;53.074;6.646;2023-09-07T14:05:11;8.55;;;3.08;;
59145;SDS011;44928;53.074;6.646;2023-09-07T14:07:37;8.13;;;3.45;;
59145;SDS011;44928;53.074;6.646;2023-09-07T14:10:03;9.30;;;3.50;;
59145;SDS011;44928;53.074;6.646;2023-09-07T14:12:30;6.95;;;3.30;;
59145;SDS011;44928;53.074;6.646;2023-09-07T14:14:56;10.82;;;3.72;;
59145;SDS011;44928;53.074;6.646;2023-09-07T14:17:22;10.63;;;4.00;;
59145;SDS011;44928;53.074;6.646;2023-09-07T14:19:48;7.57;;;3.53;;
59145;SDS011;44928;53.074;6.646;2023-09-07T14:22:15;8.68;;;3.45;;
59145;SDS011;44928;53.074;6.646;2023-09-07T14:24:40;10.75;;;3.58;;
59145;SDS011;44928;53.074;6.646;2023-09-07T14:27:06;9.18;;;3.63;;
59145;SDS011;44928;53.074;6.646;2023-09-07T14:29:34;11.20;;;3.40;;
59145;SDS011;44928;53.074;6.646;2023-09-07T14:32:01;11.40;;;3.72;;
59145;SDS011;44928;53.074;6.646;2023-09-07T14:34:27;8.10;;;3.28;;
59145;SDS011;44928;53.074;6.646;2023-09-07T14:36:53;7.90;;;3.60;;
59145;SDS011;44928;53.074;6.646;2023-09-07T14:39:21;8.60;;;3.47;;
59145;SDS011;44928;53.074;6.646;2023-09-07T14:41:50;7.93;;;3.38;;
59145;SDS011;44928;53.074;6.646;2023-09-07T14:44:19;7.77;;;3.20;;
59145;SDS011;44928;53.074;6.646;2023-09-07T14:46:45;7.25;;;3.13;;
59145;SDS011;44928;53.074;6.646;2023-09-07T14:49:14;9.88;;;3.65;;
59145;SDS011;44928;53.074;6.646;2023-09-07T14:51:43;7.97;;;3.67;;
59145;SDS011;44928;53.074;6.646;2023-09-07T14:54:14;7.68;;;3.10;;
59145;SDS011;44928;53.074;6.646;2023-09-07T14:56:43;7.82;;;3.67;;